M I D A S
Marine Information and Data Acquisition System
Tripno 1180 of the Zeeleeuw from 2006-12-19 07:30:20 to 2006-12-19 15:50:48
Back to CruiseResearch ActivitiesStationsMapUnderway DataData graphs

EquipmentUnitsComment
TimeDGPSUTC
LatitudeDGPSDM.mWGS84
LongitudeDGPSDM.mWGS84
HeadingGyrodeg 
SOGDGPSknotsSpeed over ground
COGDGPSdegCourse over ground
DepthEcho soundermeters200 kHz
Missing or incorrect values are displayed as -999
Navigation data collected by the RV Zeeleeuw from 2006-12-19 07:30:50 to 2006-12-19 16:02:29
Time Latitude Longitude Heading SOG COG Depth
2006-12-19 07:31:58 51°13.61 2°56.041 109.2 2.8 285 -999
2006-12-19 07:32:58 51°13.628 2°55.964 113.1 2.6 288 -999
2006-12-19 07:33:56 51°13.636 2°55.93 122.5 2.3 299 9
2006-12-19 07:34:58 51°13.67 2°55.85 130.8 4.2 308 -999
2006-12-19 07:35:58 51°13.718 2°55.754 129.6 4.4 308 -999
2006-12-19 07:36:56 51°13.735 2°55.727 99.3 1 70 10.4
2006-12-19 07:37:58 51°13.731 2°55.705 62.4 1.6 249 -999
2006-12-19 07:38:58 51°13.732 2°55.701 28.6 1 206 10.4
2006-12-19 07:39:58 51°13.743 2°55.693 351 2 338 10.3
2006-12-19 07:40:56 51°13.792 2°55.659 345.4 4.4 340 10.1
2006-12-19 07:41:55 51°13.869 2°55.607 338.7 5.4 335 9.4
2006-12-19 07:42:55 51°13.953 2°55.545 339.7 5.6 335 10.1
2006-12-19 07:43:54 51°14.035 2°55.487 338.6 5.5 335 10.2
2006-12-19 07:44:56 51°14.121 2°55.422 337.9 5.5 333 -999
2006-12-19 07:45:58 51°14.202 2°55.345 328.6 5.5 323 11
2006-12-19 07:46:56 51°14.265 2°55.243 315 5.8 310 9.9
2006-12-19 07:47:56 51°14.334 2°55.113 314.4 7 310 9.6
2006-12-19 07:48:55 51°14.405 2°54.939 301.4 8.9 294 10.1
2006-12-19 07:49:54 51°14.469 2°54.712 304 9.8 296 10.2
2006-12-19 07:50:54 51°14.496 2°54.433 279.8 11.3 274 10.4
2006-12-19 07:51:54 51°14.44 2°54.153 243.6 11.5 238 9.3
2006-12-19 07:52:54 51°14.328 2°53.884 240.2 12.6 236 9.2
2006-12-19 07:53:54 51°14.208 2°53.604 239.5 12.9 236 9.3
2006-12-19 07:54:54 51°14.089 2°53.321 240.2 12.9 237 9.5
2006-12-19 07:55:54 51°13.97 2°53.035 240.6 12.9 236 9.8
2006-12-19 07:56:54 51°13.85 2°52.743 240.9 13.4 237 9.9
2006-12-19 07:57:54 51°13.727 2°52.442 241.1 13.5 237 10
2006-12-19 07:58:54 51°13.604 2°52.141 240.6 13.6 237 10.1
2006-12-19 07:59:54 51°13.482 2°51.84 241.2 13.5 238 10.2
2006-12-19 08:00:54 51°13.358 2°51.531 240.8 14.3 237 10.2
2006-12-19 08:01:54 51°13.23 2°51.207 241.3 14.4 238 10.2
2006-12-19 08:02:54 51°13.101 2°50.881 241.5 14.5 239 10.3
2006-12-19 08:03:54 51°12.973 2°50.554 241.6 14.5 238 10.3
2006-12-19 08:04:54 51°12.846 2°50.227 243.2 14.4 238 10.2
2006-12-19 08:05:54 51°12.723 2°49.895 243.1 14.4 241 10.3
2006-12-19 08:06:54 51°12.603 2°49.564 243.4 14.4 240 10.5
2006-12-19 08:07:54 51°12.483 2°49.236 243.5 14.3 240 10.4
2006-12-19 08:08:54 51°12.362 2°48.91 242.7 14.2 240 10.4
2006-12-19 08:09:54 51°12.241 2°48.584 243.1 14.4 239 10.5
2006-12-19 08:10:54 51°12.119 2°48.256 242.5 14.5 239 10.5
2006-12-19 08:11:54 51°12 2°47.925 243.8 14.5 241 10.4
2006-12-19 08:12:54 51°11.88 2°47.593 243.1 14.4 240 10.2
2006-12-19 08:13:53 51°11.762 2°47.268 243.8 14.3 240 10
2006-12-19 08:14:54 51°11.656 2°46.923 254.8 14.3 252 9.9
2006-12-19 08:15:54 51°11.59 2°46.558 258.3 14.4 254 10.4
2006-12-19 08:16:54 51°11.523 2°46.191 258.3 14.4 254 11.1
2006-12-19 08:17:54 51°11.457 2°45.826 257.7 14.3 254 11.2
2006-12-19 08:18:54 51°11.391 2°45.463 257.6 14.2 254 11.5
2006-12-19 08:19:54 51°11.324 2°45.099 257.4 14.3 254 11.7
2006-12-19 08:20:54 51°11.268 2°44.73 260.5 14.3 256 11.9
2006-12-19 08:21:55 51°11.222 2°44.351 264.4 14.3 261 12.1
2006-12-19 08:22:54 51°11.188 2°43.982 267 14.3 262 12.3
2006-12-19 08:23:55 51°11.165 2°43.597 268.8 14.4 265 12.6
2006-12-19 08:24:54 51°11.148 2°43.226 270.7 14.3 267 12.8
2006-12-19 08:25:54 51°11.134 2°42.85 270 14.2 266 12.8
2006-12-19 08:26:55 51°11.12 2°42.508 268.6 10.2 265 12.9
2006-12-19 08:27:54 51°11.109 2°42.287 270.8 7.2 266 12.9
2006-12-19 08:28:54 51°11.1 2°42.114 270.2 5.8 265 12.7
2006-12-19 08:29:53 51°11.092 2°42.053 254 0.2 31 12.7
2006-12-19 08:30:58 51°11.092 2°42.053 249.7 0.1 251 -999
2006-12-19 08:31:57 51°11.092 2°42.047 252.3 0.3 277 5.8
2006-12-19 08:32:55 51°11.088 2°42.041 252.5 0.4 245 12.8
2006-12-19 08:33:54 51°11.084 2°42.031 249.6 0.5 269 12
2006-12-19 08:34:55 51°11.08 2°42.02 248.6 0.5 249 12.1
2006-12-19 08:35:54 51°11.077 2°42.007 248.9 0.5 246 12.8
2006-12-19 08:36:54 51°11.073 2°41.994 247.5 0.6 233 12.8
2006-12-19 08:37:55 51°11.069 2°41.98 245 0.6 241 12.8
2006-12-19 08:38:54 51°11.064 2°41.968 242.3 0.6 242 12.9
2006-12-19 08:39:54 51°11.058 2°41.956 239.8 0.6 230 13
2006-12-19 08:40:53 51°11.052 2°41.944 236.7 0.6 235 13
2006-12-19 08:41:54 51°11.046 2°41.933 234.3 0.5 234 13
2006-12-19 08:42:54 51°11.038 2°41.918 234.7 1.8 235 13
2006-12-19 08:43:55 51°10.997 2°41.776 251.5 9.4 248 13
2006-12-19 08:44:55 51°10.921 2°41.488 252 13.2 248 12.9
2006-12-19 08:45:54 51°10.841 2°41.157 252.5 13.8 250 13
2006-12-19 08:46:55 51°10.758 2°40.81 252.7 13.9 249 13.4
2006-12-19 08:47:54 51°10.678 2°40.473 252.4 13.8 249 13.9
2006-12-19 08:48:54 51°10.597 2°40.133 253.3 13.7 249 14.6
2006-12-19 08:49:54 51°10.52 2°39.792 255.1 13.6 251 15.1
2006-12-19 08:50:54 51°10.428 2°39.461 249.9 13.7 246 15.4
2006-12-19 08:51:54 51°10.336 2°39.127 250 13.7 247 15.8
2006-12-19 08:52:55 51°10.241 2°38.79 249.8 13.7 246 16.3
2006-12-19 08:53:55 51°10.149 2°38.459 249.9 13.7 247 17
2006-12-19 08:54:54 51°10.059 2°38.133 250.7 13.6 246 17.5
2006-12-19 08:55:55 51°9.967 2°37.794 250.1 13.6 245 17.6
2006-12-19 08:56:54 51°9.875 2°37.474 250.4 13.5 246 17.7
2006-12-19 08:57:55 51°9.782 2°37.143 250.9 13.4 247 17.6
2006-12-19 08:58:55 51°9.71 2°36.807 264.4 13.4 262 17.3
2006-12-19 08:59:55 51°9.734 2°36.456 290.1 13.4 288 18.2
2006-12-19 09:00:55 51°9.839 2°36.141 305.9 13.5 306 19
2006-12-19 09:01:55 51°9.989 2°35.874 318.8 13.6 316 18.7
2006-12-19 09:02:55 51°10.172 2°35.678 340.7 13.1 342 12
2006-12-19 09:03:55 51°10.39 2°35.72 22.3 13.8 20 12.3
2006-12-19 09:04:55 51°10.598 2°35.873 28.9 13.8 27 11.4
2006-12-19 09:05:55 51°10.802 2°36.046 31.8 13.9 29 12.1
2006-12-19 09:06:55 51°11.002 2°36.229 32.2 13.9 29 12.7
2006-12-19 09:07:55 51°11.199 2°36.424 37.4 14 34 12.9
2006-12-19 09:08:55 51°11.391 2°36.629 36.3 13.9 33 13
2006-12-19 09:09:55 51°11.584 2°36.832 36 13.9 34 13
2006-12-19 09:10:55 51°11.778 2°37.035 36.2 14 33 13.2
2006-12-19 09:11:55 51°11.972 2°37.236 35.8 13.9 33 12.9
2006-12-19 09:12:55 51°12.167 2°37.434 35.2 13.8 33 13.2
2006-12-19 09:13:55 51°12.361 2°37.634 35.4 13.9 32 13.3
2006-12-19 09:14:55 51°12.555 2°37.831 35.5 13.9 33 13.8
2006-12-19 09:15:55 51°12.749 2°38.031 35.8 13.8 33 14.2
2006-12-19 09:16:55 51°12.944 2°38.231 35.5 13.9 33 14.9
2006-12-19 09:17:55 51°13.139 2°38.433 35.3 14 33 15.4
2006-12-19 09:18:55 51°13.336 2°38.628 32.5 13.9 30 15.6
2006-12-19 09:19:55 51°13.542 2°38.797 27.4 13.9 24 15.8
2006-12-19 09:20:55 51°13.759 2°38.917 19.3 13.7 16 15.7
2006-12-19 09:21:55 51°13.983 2°38.954 1.9 13.4 356 14.4
2006-12-19 09:22:55 51°14.19 2°38.848 338.6 13.2 336 14.2
2006-12-19 09:23:54 51°14.388 2°38.7 337.3 13.4 334 19.3
2006-12-19 09:24:55 51°14.592 2°38.542 336.3 13.4 334 18.3
2006-12-19 09:25:55 51°14.79 2°38.377 333.7 13.5 332 17.9
2006-12-19 09:26:55 51°14.987 2°38.21 334.3 13.4 332 16.2
2006-12-19 09:27:55 51°15.185 2°38.05 334.9 13.3 333 12.9
2006-12-19 09:28:55 51°15.377 2°37.88 331.3 13.2 331 11.9
2006-12-19 09:29:55 51°15.57 2°37.71 331.1 13.3 331 12.4
2006-12-19 09:30:55 51°15.762 2°37.542 331.4 13.1 331 9.7
2006-12-19 09:31:55 51°15.953 2°37.371 332.2 13.3 330 12.6
2006-12-19 09:32:55 51°16.145 2°37.192 332.7 13.5 330 20.9
2006-12-19 09:33:55 51°16.321 2°37.032 332.6 9.6 331 27.3
2006-12-19 09:34:55 51°16.44 2°36.925 332.4 7.4 331 28.5
2006-12-19 09:35:55 51°16.542 2°36.838 332.7 6.3 333 28.1
2006-12-19 09:36:55 51°16.601 2°36.801 351.2 1 15 28
2006-12-19 09:37:55 51°16.604 2°36.809 9.7 0.3 57 28.1
2006-12-19 09:38:55 51°16.607 2°36.817 15.5 0.4 52 28.1
2006-12-19 09:39:55 51°16.612 2°36.827 17.6 0.5 55 28.1
2006-12-19 09:40:55 51°16.617 2°36.839 21.7 0.6 55 28.1
2006-12-19 09:41:55 51°16.624 2°36.853 27.1 0.8 56 28.1
2006-12-19 09:42:55 51°16.631 2°36.869 31.8 0.9 62 28.3
2006-12-19 09:43:55 51°16.639 2°36.887 36.8 0.8 55 28.5
2006-12-19 09:44:55 51°16.647 2°36.906 44.4 0.8 52 28.4
2006-12-19 09:45:55 51°16.654 2°36.926 50.5 0.9 54 28.5
2006-12-19 09:46:55 51°16.662 2°36.947 55.8 1.1 54 28.4
2006-12-19 09:47:55 51°16.712 2°37.013 27 7 26 27.9
2006-12-19 09:48:55 51°16.887 2°37.135 26 13.7 23 29.8
2006-12-19 09:49:55 51°17.097 2°37.302 33 14.3 31 28.7
2006-12-19 09:50:55 51°17.3 2°37.502 34.6 14.3 32 28.7
2006-12-19 09:51:55 51°17.503 2°37.701 34.2 14.3 31 28.8
2006-12-19 09:52:55 51°17.706 2°37.904 34.5 14.4 31 28.7
2006-12-19 09:53:55 51°17.91 2°38.101 34 14.2 32 28.6
2006-12-19 09:54:55 51°18.111 2°38.302 34.9 14.2 33 28.5
2006-12-19 09:55:55 51°18.31 2°38.506 35.2 14.3 32 29.3
2006-12-19 09:56:55 51°18.511 2°38.709 36 14.3 32 28.9
2006-12-19 09:57:55 51°18.712 2°38.911 35.5 14.3 32 28.5
2006-12-19 09:58:55 51°18.914 2°39.115 35.5 14.3 32 28.9
2006-12-19 09:59:55 51°19.116 2°39.318 35.5 14.3 32 28.9
2006-12-19 10:00:55 51°19.319 2°39.521 35.5 14.4 32 30.1
2006-12-19 10:01:55 51°19.523 2°39.724 35.3 14.5 31 30.9
2006-12-19 10:02:55 51°19.727 2°39.928 34.5 14.5 31 31.8
2006-12-19 10:03:55 51°19.926 2°40.146 39.1 14.5 37 30.5
2006-12-19 10:04:55 51°20.121 2°40.377 39.5 14.6 37 30.7
2006-12-19 10:05:55 51°20.316 2°40.61 39.1 14.6 37 30.6
2006-12-19 10:06:55 51°20.51 2°40.844 39.4 14.6 37 29.8
2006-12-19 10:07:55 51°20.705 2°41.078 39.9 14.7 37 29.3
2006-12-19 10:08:55 51°20.899 2°41.313 39.5 14.6 37 27.5
2006-12-19 10:09:55 51°21.094 2°41.55 39.2 14.8 38 27.1
2006-12-19 10:10:55 51°21.29 2°41.785 39.4 14.8 37 26.7
2006-12-19 10:11:55 51°21.483 2°42.028 41.5 14.7 41 23.7
2006-12-19 10:12:55 51°21.671 2°42.282 42 14.7 40 23.2
2006-12-19 10:13:55 51°21.857 2°42.538 43.5 14.7 42 26.5
2006-12-19 10:14:55 51°22.038 2°42.804 44.7 14.8 43 26.4
2006-12-19 10:15:55 51°22.22 2°43.069 44.2 14.7 43 27.9
2006-12-19 10:16:55 51°22.403 2°43.334 44.3 14.8 42 27.4
2006-12-19 10:17:55 51°22.585 2°43.598 44.4 14.9 42 26.8
2006-12-19 10:18:55 51°22.768 2°43.863 44.6 14.8 42 28.5
2006-12-19 10:19:55 51°22.95 2°44.127 44.2 14.7 42 27.3
2006-12-19 10:20:55 51°23.133 2°44.391 43.9 14.8 42 29.3
2006-12-19 10:21:55 51°23.316 2°44.656 44 14.8 43 29
2006-12-19 10:22:55 51°23.499 2°44.922 44.8 14.9 42 28.7
2006-12-19 10:23:55 51°23.682 2°45.188 44.7 14.9 43 28.9
2006-12-19 10:24:55 51°23.867 2°45.453 44.2 14.9 42 28.9
2006-12-19 10:25:55 51°24.053 2°45.719 43.9 15 41 29
2006-12-19 10:26:55 51°24.239 2°45.984 44.2 15 41 29.3
2006-12-19 10:27:55 51°24.424 2°46.251 44.1 15 42 28.6
2006-12-19 10:28:55 51°24.61 2°46.516 45 15 42 30.2
2006-12-19 10:29:55 51°24.795 2°46.783 44.2 15 42 29.1
2006-12-19 10:30:55 51°24.98 2°47.049 44.3 15 42 28.2
2006-12-19 10:31:55 51°25.165 2°47.313 43.8 14.9 42 26.9
2006-12-19 10:32:55 51°25.351 2°47.575 44.7 14.8 42 28.7
2006-12-19 10:33:55 51°25.536 2°47.835 43.9 14.8 41 26.6
2006-12-19 10:34:55 51°25.697 2°48.067 44.7 12 42 25.5
2006-12-19 10:35:55 51°25.842 2°48.278 44.3 11.6 42 25.5
2006-12-19 10:36:55 51°25.953 2°48.444 44.3 7.5 44 25.7
2006-12-19 10:37:55 51°26.01 2°48.537 47.1 1.6 57 25.7
2006-12-19 10:38:57 51°26.013 2°48.548 52.3 0.5 59 25.8
2006-12-19 10:39:55 51°26.019 2°48.563 52.3 0.8 63 25.7
2006-12-19 10:40:55 51°26.028 2°48.582 50.9 1 53 26
2006-12-19 10:41:55 51°26.038 2°48.605 48.2 1.2 56 26
2006-12-19 10:42:55 51°26.052 2°48.631 46.4 1.3 52 26.2
2006-12-19 10:43:55 51°26.065 2°48.66 46.5 1.5 59 26.2
2006-12-19 10:44:55 51°26.081 2°48.693 49.9 1.6 49 26.2
2006-12-19 10:45:55 51°26.097 2°48.728 55 1.7 52 24.4
2006-12-19 10:46:55 51°26.114 2°48.766 60.9 1.8 55 25.9
2006-12-19 10:47:55 51°26.14 2°48.833 66.8 5.1 60 25.6
2006-12-19 10:48:55 51°26.199 2°49.021 71.8 10.5 67 25.8
2006-12-19 10:49:55 51°26.27 2°49.345 76.5 14.6 71 25.3
2006-12-19 10:50:55 51°26.347 2°49.73 79.5 15.4 74 25.1
2006-12-19 10:51:55 51°26.415 2°50.126 81 15.4 76 25
2006-12-19 10:52:55 51°26.477 2°50.525 81.7 15.4 77 25.5
2006-12-19 10:53:55 51°26.538 2°50.925 81.3 15.4 77 26
2006-12-19 10:54:54 51°26.598 2°51.315 81.2 15.3 76 26.9
2006-12-19 10:55:55 51°26.66 2°51.722 81.2 15.5 75 27.5
2006-12-19 10:56:55 51°26.72 2°52.122 83.6 15.4 77 29.7
2006-12-19 10:57:55 51°26.775 2°52.524 83.4 15.5 78 29.2
2006-12-19 10:58:55 51°26.831 2°52.928 82.9 15.4 77 30.7
2006-12-19 10:59:55 51°26.887 2°53.329 82.6 15.5 77 31.1
2006-12-19 11:00:55 51°26.943 2°53.73 83.5 15.3 77 28.8
2006-12-19 11:01:55 51°27 2°54.132 83.1 15.6 77 26.4
2006-12-19 11:02:55 51°27.059 2°54.537 83 15.6 78 30
2006-12-19 11:03:55 51°27.116 2°54.942 83.4 15.6 78 30.5
2006-12-19 11:04:55 51°27.171 2°55.347 84.4 15.4 78 31.1
2006-12-19 11:05:55 51°27.225 2°55.749 84 15.4 78 30.6
2006-12-19 11:06:55 51°27.279 2°56.149 84.2 15.2 78 30.3
2006-12-19 11:07:55 51°27.333 2°56.546 84.9 15.2 78 26.9
2006-12-19 11:08:54 51°27.386 2°56.938 84 15.4 78 26.7
2006-12-19 11:09:55 51°27.44 2°57.343 84.4 15.2 78 28.6
2006-12-19 11:10:55 51°27.492 2°57.741 84.1 15.2 78 26.4
2006-12-19 11:11:55 51°27.545 2°58.14 84.5 15.3 79 22.7
2006-12-19 11:12:55 51°27.595 2°58.539 84.6 15.2 79 21.1
2006-12-19 11:13:55 51°27.645 2°58.939 84.5 15.3 79 20.8
2006-12-19 11:14:55 51°27.695 2°59.338 84.1 15.2 78 20.1
2006-12-19 11:15:55 51°27.746 2°59.738 84.5 15.3 79 21.1
2006-12-19 11:16:55 51°27.797 3°0.137 84.1 15.3 78 21.5
2006-12-19 11:17:55 51°27.853 3°0.537 82.7 15.4 77 23.9
2006-12-19 11:18:54 51°27.914 3°0.929 83.7 15.4 76 25.1
2006-12-19 11:19:55 51°27.978 3°1.334 83.6 15.4 76 25.1
2006-12-19 11:20:55 51°28.039 3°1.736 83.6 15.5 77 25.8
2006-12-19 11:21:55 51°28.092 3°2.14 85.2 15.5 79 25.8
2006-12-19 11:22:55 51°28.14 3°2.545 85.7 15.4 79 25.9
2006-12-19 11:23:55 51°28.183 3°2.882 86.3 10.1 77 25.5
2006-12-19 11:24:55 51°28.216 3°3.102 86.7 7.7 76 25.3
2006-12-19 11:25:55 51°28.243 3°3.288 88.1 6.9 76 24.9
2006-12-19 11:26:55 51°28.268 3°3.453 87.8 5.4 75 24.6
2006-12-19 11:27:55 51°28.285 3°3.514 91.8 1.6 55 24.6
2006-12-19 11:28:55 51°28.302 3°3.552 91.1 1.9 51 24.6
2006-12-19 11:29:55 51°28.319 3°3.592 90.4 1.9 55 24.5
2006-12-19 11:30:55 51°28.338 3°3.632 89.3 1.8 58 24.4
2006-12-19 11:31:55 51°28.356 3°3.674 90.6 1.9 55 24.5
2006-12-19 11:32:55 51°28.373 3°3.716 95.8 1.8 62 24.4
2006-12-19 11:33:55 51°28.391 3°3.759 103.9 1.9 58 24.5
2006-12-19 11:34:55 51°28.407 3°3.801 111.8 1.9 61 24.4
2006-12-19 11:35:55 51°28.422 3°3.844 119 1.9 59 24.2
2006-12-19 11:36:55 51°28.437 3°3.885 124.5 1.7 61 24.4
2006-12-19 11:37:55 51°28.436 3°3.945 154.6 2.9 122 24.2
2006-12-19 11:38:55 51°28.389 3°3.949 227.1 3.4 225 23.8
2006-12-19 11:39:55 51°28.353 3°3.847 247.8 5.1 247 23.8
2006-12-19 11:40:54 51°28.318 3°3.719 242.5 5.5 242 24.1
2006-12-19 11:41:55 51°28.292 3°3.601 255.1 3.8 258 24.4
2006-12-19 11:42:55 51°28.286 3°3.524 251.9 2.2 264 24.5
2006-12-19 11:43:55 51°28.278 3°3.492 234.1 0.8 234 24.5
2006-12-19 11:44:55 51°28.272 3°3.491 222.8 0.4 141 24.6
2006-12-19 11:45:55 51°28.266 3°3.501 215.2 0.8 135 24.4
2006-12-19 11:46:55 51°28.256 3°3.516 208.5 0.9 142 24.4
2006-12-19 11:47:55 51°28.245 3°3.53 216.7 0.8 151 24.3
2006-12-19 11:48:55 51°28.236 3°3.535 227.8 0.5 163 24.2
2006-12-19 11:49:55 51°28.229 3°3.537 228.5 0.4 196 24.1
2006-12-19 11:50:55 51°28.222 3°3.538 226.4 0.5 177 24
2006-12-19 11:51:55 51°28.212 3°3.541 221.7 0.7 164 23.9
2006-12-19 11:52:55 51°28.201 3°3.546 217.2 0.7 156 23.9
2006-12-19 11:53:55 51°28.193 3°3.561 214.1 0.5 112 23.8
2006-12-19 11:54:55 51°28.19 3°3.582 209.9 0.8 94 23.7
2006-12-19 11:55:55 51°28.189 3°3.608 208.7 1 85 23.5
2006-12-19 11:56:55 51°28.191 3°3.635 212.8 1 87 23.4
2006-12-19 11:57:55 51°28.19 3°3.643 242.2 0.7 262 23.4
2006-12-19 11:58:55 51°28.211 3°3.598 300.4 3.4 324 23.7
2006-12-19 11:59:55 51°28.258 3°3.529 288.4 3.7 306 24.3
2006-12-19 12:00:55 51°28.278 3°3.501 252.2 0.8 15 24.6
2006-12-19 12:01:55 51°28.287 3°3.514 234.6 0.8 59 24.5
2006-12-19 12:02:55 51°28.296 3°3.535 228.6 1.1 65 24.5
2006-12-19 12:03:55 51°28.304 3°3.559 225.7 0.8 63 24.4
2006-12-19 12:04:55 51°28.303 3°3.573 222.6 0.5 135 24.4
2006-12-19 12:05:55 51°28.299 3°3.585 222.4 0.5 107 24.5
2006-12-19 12:06:55 51°28.299 3°3.602 222.8 0.7 81 24.3
2006-12-19 12:07:55 51°28.283 3°3.616 189.4 2.7 150 24.2
2006-12-19 12:08:55 51°28.215 3°3.739 148.4 10.6 136 23.1
2006-12-19 12:09:55 51°28.066 3°3.994 137.9 13.9 129 21.1
2006-12-19 12:10:55 51°27.928 3°4.289 132 13.9 123 18.9
2006-12-19 12:11:55 51°27.8 3°4.596 131.5 13.8 125 16.8
2006-12-19 12:12:55 51°27.67 3°4.899 133.7 13.9 125 15.5
2006-12-19 12:13:55 51°27.541 3°5.202 132.7 13.8 124 16.6
2006-12-19 12:14:55 51°27.409 3°5.502 132.5 13.5 127 16.3
2006-12-19 12:15:55 51°27.294 3°5.822 125.6 13.9 118 15.7
2006-12-19 12:16:55 51°27.189 3°6.152 125.6 13.9 119 15.1
2006-12-19 12:17:55 51°27.082 3°6.478 125.9 13.8 117 14.8
2006-12-19 12:18:55 51°26.973 3°6.801 125.4 13.6 119 14.2
2006-12-19 12:19:55 51°26.869 3°7.128 123.3 13.9 117 13.7
2006-12-19 12:20:55 51°26.768 3°7.458 124.3 13.9 116 13.2
2006-12-19 12:21:55 51°26.665 3°7.786 124.1 13.8 118 12.5
2006-12-19 12:22:55 51°26.58 3°8.052 128.1 8.2 118 12.6
2006-12-19 12:23:55 51°26.528 3°8.221 132 6.6 128 13
2006-12-19 12:24:55 51°26.464 3°8.25 207.8 1.1 194 12.7
2006-12-19 12:25:55 51°26.472 3°8.264 245.7 1 42 12.7
2006-12-19 12:26:55 51°26.485 3°8.281 256.6 1 37 12.8
2006-12-19 12:27:55 51°26.496 3°8.293 259.3 0.6 28 12.9
2006-12-19 12:28:55 51°26.506 3°8.294 253.5 0.5 348 12.9
2006-12-19 12:29:55 51°26.513 3°8.291 240.8 0.4 350 12.9
2006-12-19 12:30:55 51°26.519 3°8.295 234.3 0.5 32 12.9
2006-12-19 12:31:55 51°26.526 3°8.303 229.5 0.6 35 13
2006-12-19 12:32:55 51°26.533 3°8.316 225.5 0.7 37 13.1
2006-12-19 12:33:55 51°26.542 3°8.333 223 0.8 44 13.1
2006-12-19 12:34:55 51°26.552 3°8.35 223.6 0.9 50 13.1
2006-12-19 12:35:55 51°26.563 3°8.369 223.6 1 44 13.5
2006-12-19 12:36:55 51°26.575 3°8.388 223.8 1.1 47 13
2006-12-19 12:37:55 51°26.586 3°8.41 224.1 1.1 53 13.2
2006-12-19 12:38:55 51°26.594 3°8.426 213.9 0.7 166 13.2
2006-12-19 12:39:55 51°26.55 3°8.409 219.6 3.8 214 12.9
2006-12-19 12:40:55 51°26.481 3°8.359 209.4 4.2 203 12.7
2006-12-19 12:41:55 51°26.458 3°8.333 236.7 0.4 278 12.7
2006-12-19 12:42:55 51°26.463 3°8.325 250.8 0.4 331 12.7
2006-12-19 12:43:55 51°26.471 3°8.322 252.3 0.6 354 12.7
2006-12-19 12:44:55 51°26.482 3°8.323 256.2 0.6 9 12.8
2006-12-19 12:45:55 51°26.493 3°8.327 261.3 0.6 18 12.7
2006-12-19 12:46:55 51°26.505 3°8.332 266.2 0.8 16 12.9
2006-12-19 12:47:55 51°26.519 3°8.339 269.4 0.8 21 12.9
2006-12-19 12:48:55 51°26.533 3°8.347 272.2 1 19 12.9
2006-12-19 12:49:55 51°26.547 3°8.358 274.3 1 24 13.1
2006-12-19 12:50:55 51°26.561 3°8.372 276.9 0.8 36 13.3
2006-12-19 12:51:55 51°26.576 3°8.387 278 1.2 29 12.9
2006-12-19 12:52:55 51°26.59 3°8.404 276.9 1.3 30 13
2006-12-19 12:53:55 51°26.605 3°8.4 279.5 2.2 310 13.2
2006-12-19 12:54:55 51°26.698 3°8.337 356.2 9.2 4 13.3
2006-12-19 12:55:55 51°26.797 3°8.528 90.5 10.4 88 13.7
2006-12-19 12:56:55 51°26.72 3°8.808 124.8 12.9 120 13.1
2006-12-19 12:57:55 51°26.607 3°9.125 126.2 13.9 121 12.3
2006-12-19 12:58:54 51°26.474 3°9.414 135.5 13.5 129 11.6
2006-12-19 12:59:55 51°26.329 3°9.705 134.3 13.7 129 10.9
2006-12-19 13:00:55 51°26.186 3°9.988 135.4 13.5 130 10.3
2006-12-19 13:01:55 51°26.035 3°10.26 137.6 13.7 132 9.8
2006-12-19 13:02:55 51°25.882 3°10.526 140.5 13.7 133 9.4
2006-12-19 13:03:55 51°25.725 3°10.784 139.8 13.6 133 9.2
2006-12-19 13:04:55 51°25.566 3°11.043 140.7 13.7 137 9.9
2006-12-19 13:05:55 51°25.395 3°11.291 143.7 13.9 139 11
2006-12-19 13:06:55 51°25.23 3°11.546 132.1 13.7 124 11.6
2006-12-19 13:07:54 51°25.114 3°11.865 125.9 14.2 120 12.1
2006-12-19 13:08:55 51°24.996 3°12.199 125.4 14.4 118 13.3
2006-12-19 13:09:55 51°24.894 3°12.546 119.6 14.4 111 14.5
2006-12-19 13:10:55 51°24.778 3°12.878 138 14.1 133 16.2
2006-12-19 13:11:54 51°24.593 3°13.104 153.3 14.4 145 18.6
2006-12-19 13:12:55 51°24.376 3°13.231 181.4 13.4 175 20.4
2006-12-19 13:13:55 51°24.153 3°13.24 187.6 13.3 180 16.1
2006-12-19 13:14:55 51°23.93 3°13.244 185.8 13.7 180 13.3
2006-12-19 13:15:54 51°23.708 3°13.252 184.4 13.5 178 13.2
2006-12-19 13:16:55 51°23.478 3°13.266 187.2 13.5 181 12.7
2006-12-19 13:17:54 51°23.257 3°13.264 186.5 13.6 180 13.3
2006-12-19 13:18:55 51°23.037 3°13.262 187.9 11.1 179 12.7
2006-12-19 13:19:55 51°22.887 3°13.282 173.1 8.3 159 13
2006-12-19 13:20:55 51°22.773 3°13.332 199.3 5.3 190 13.1
2006-12-19 13:21:55 51°22.697 3°13.29 209.2 4.7 198 13.5
2006-12-19 13:22:54 51°22.646 3°13.231 232.6 3.6 223 13.8
2006-12-19 13:23:55 51°22.629 3°13.209 256.6 0.2 198 13.8
2006-12-19 13:24:54 51°22.629 3°13.208 267.3 0.1 19 13.8
2006-12-19 13:25:55 51°22.631 3°13.212 269.7 0.3 50 13.8
2006-12-19 13:26:55 51°22.633 3°13.221 269 0.4 61 13.8
2006-12-19 13:27:55 51°22.635 3°13.232 265.7 0.5 82 13.8
2006-12-19 13:28:55 51°22.637 3°13.245 261.8 0.5 70 13.8
2006-12-19 13:29:55 51°22.638 3°13.26 256.9 0.5 68 13.7
2006-12-19 13:30:55 51°22.639 3°13.276 252.5 0.6 90 13.6
2006-12-19 13:31:55 51°22.639 3°13.291 249.2 0.5 83 13.6
2006-12-19 13:32:55 51°22.639 3°13.307 246.9 0.6 92 13.6
2006-12-19 13:33:55 51°22.639 3°13.322 246.3 0.5 93 13.6
2006-12-19 13:34:54 51°22.638 3°13.336 246.2 0.4 68 13.5
2006-12-19 13:35:55 51°22.634 3°13.339 245.8 0.8 225 13.6
2006-12-19 13:36:55 51°22.622 3°13.306 253.9 1.9 252 13.5
2006-12-19 13:37:55 51°22.611 3°13.249 257.8 2.4 252 13.7
2006-12-19 13:38:55 51°22.602 3°13.2 261.1 0.8 257 13.8
2006-12-19 13:39:55 51°22.602 3°13.194 269.5 0.1 271 13.8
2006-12-19 13:40:55 51°22.603 3°13.193 271.4 0.1 26 13.8
2006-12-19 13:41:55 51°22.604 3°13.195 270.1 0.2 99 13.8
2006-12-19 13:42:55 51°22.605 3°13.201 269.2 0.2 81 13.8
2006-12-19 13:43:55 51°22.605 3°13.209 267 0.3 83 13.8
2006-12-19 13:44:54 51°22.606 3°13.219 263.5 0.5 82 13.7
2006-12-19 13:45:55 51°22.605 3°13.232 259.6 0.5 104 13.7
2006-12-19 13:46:55 51°22.605 3°13.245 257.5 0.6 102 13.7
2006-12-19 13:47:55 51°22.605 3°13.259 255.8 0.6 107 13.6
2006-12-19 13:48:55 51°22.605 3°13.272 255.8 0.5 88 13.5
2006-12-19 13:49:54 51°22.605 3°13.284 256.6 0.5 86 13.5
2006-12-19 13:50:55 51°22.605 3°13.297 256.9 0.4 68 13.4
2006-12-19 13:51:55 51°22.604 3°13.31 256.8 0.4 95 13.4
2006-12-19 13:52:55 51°22.603 3°13.322 255.8 0.4 79 13.3
2006-12-19 13:53:54 51°22.602 3°13.335 254.3 0.5 104 13.3
2006-12-19 13:54:55 51°22.6 3°13.344 253.2 0.2 202 13.2
2006-12-19 13:55:55 51°22.578 3°13.251 253.3 6.4 252 13.3
2006-12-19 13:56:55 51°22.543 3°13.01 260.5 11.5 258 14
2006-12-19 13:57:55 51°22.499 3°12.685 259.7 12.9 257 14.8
2006-12-19 13:58:55 51°22.446 3°12.35 256 13.1 254 15.6
2006-12-19 13:59:55 51°22.352 3°12.038 241.6 13.1 239 16.6
2006-12-19 14:00:55 51°22.246 3°11.732 243 13.2 243 17
2006-12-19 14:01:55 51°22.147 3°11.415 241.4 13.6 241 18.2
2006-12-19 14:02:55 51°22.039 3°11.092 242.3 13.8 243 19.4
2006-12-19 14:03:55 51°21.933 3°10.772 243.1 13.4 242 18.6
2006-12-19 14:04:55 51°21.828 3°10.457 243.6 13.4 243 18.2
2006-12-19 14:05:55 51°21.722 3°10.141 243.4 13.6 243 14.6
2006-12-19 14:06:55 51°21.608 3°9.831 239.8 13.6 239 13.2
2006-12-19 14:07:55 51°21.489 3°9.527 239.4 13.6 237 11.8
2006-12-19 14:08:55 51°21.366 3°9.229 238.1 13.3 237 10.7
2006-12-19 14:09:55 51°21.242 3°8.929 238.5 13.6 236 10.2
2006-12-19 14:10:55 51°21.117 3°8.63 237.7 13.5 235 9.6
2006-12-19 14:11:55 51°20.991 3°8.331 238 13.5 237 9.1
2006-12-19 14:12:55 51°20.866 3°8.033 238.2 13.6 238 9
2006-12-19 14:13:55 51°20.741 3°7.735 237.6 13.4 236 8.9
2006-12-19 14:14:54 51°20.62 3°7.442 236.9 13.5 235 8.7
2006-12-19 14:15:55 51°20.494 3°7.138 239.2 13.5 236 8.6
2006-12-19 14:16:55 51°20.371 3°6.837 240.3 13.6 239 8.5
2006-12-19 14:17:54 51°20.25 3°6.54 236 13.8 238 8.6
2006-12-19 14:18:55 51°20.124 3°6.234 238.9 13.5 237 8.6
2006-12-19 14:19:55 51°19.999 3°5.934 238 13.6 235 8.7
2006-12-19 14:20:55 51°19.873 3°5.634 238.2 13.6 237 8.6
2006-12-19 14:21:55 51°19.748 3°5.333 238.1 13.6 236 8.7
2006-12-19 14:22:55 51°19.624 3°5.031 236.8 13.6 235 8.6
2006-12-19 14:23:55 51°19.5 3°4.729 238.7 13.6 236 8.7
2006-12-19 14:24:55 51°19.373 3°4.43 238.9 13.6 235 8.6
2006-12-19 14:25:55 51°19.248 3°4.128 238.7 13.5 236 8.7
2006-12-19 14:26:55 51°19.123 3°3.828 238.8 13.4 236 8.6
2006-12-19 14:27:55 51°18.996 3°3.534 238.9 13.5 235 8.4
2006-12-19 14:28:55 51°18.87 3°3.24 237.2 13.4 235 8.4
2006-12-19 14:29:55 51°18.749 3°2.941 241.6 13.4 240 8.7
2006-12-19 14:30:55 51°18.633 3°2.638 239.3 13.4 236 8.7
2006-12-19 14:31:55 51°18.518 3°2.334 241.6 13.3 237 8.7
2006-12-19 14:32:55 51°18.409 3°2.025 244.5 13.3 243 8.9
2006-12-19 14:33:55 51°18.295 3°1.719 241.5 13.4 238 8.9
2006-12-19 14:34:55 51°18.181 3°1.416 241.5 13.2 240 8.8
2006-12-19 14:35:55 51°18.067 3°1.112 240.9 13.4 239 8.9
2006-12-19 14:36:55 51°17.951 3°0.809 240.8 13.3 239 8.9
2006-12-19 14:37:55 51°17.834 3°0.503 241.1 13.6 237 9
2006-12-19 14:38:55 51°17.718 3°0.195 241 13.6 239 9.2
2006-12-19 14:39:55 51°17.606 2°59.88 244.5 13.7 242 9.7
2006-12-19 14:40:55 51°17.501 2°59.557 246.1 13.7 245 9.4
2006-12-19 14:41:55 51°17.4 2°59.232 246.6 13.7 244 9.3
2006-12-19 14:42:55 51°17.301 2°58.907 246.9 13.6 244 9.4
2006-12-19 14:43:55 51°17.203 2°58.579 249.1 13.6 246 9.4
2006-12-19 14:44:55 51°17.113 2°58.245 250.7 13.8 248 9.5
2006-12-19 14:45:55 51°17.027 2°57.908 250.4 13.6 247 9.4
2006-12-19 14:46:55 51°16.947 2°57.57 252.9 13.7 249 9.4
2006-12-19 14:47:55 51°16.867 2°57.231 252.7 13.6 249 9.7
2006-12-19 14:48:55 51°16.787 2°56.892 252.8 13.6 249 9.9
2006-12-19 14:49:55 51°16.708 2°56.553 252.9 13.6 249 10.2
2006-12-19 14:50:55 51°16.631 2°56.215 253 13.5 249 10.2
2006-12-19 14:51:55 51°16.552 2°55.877 252.4 13.7 251 10.4
2006-12-19 14:52:55 51°16.478 2°55.533 253.6 13.7 250 10.6
2006-12-19 14:53:55 51°16.403 2°55.188 253.7 13.7 252 10.9
2006-12-19 14:54:55 51°16.335 2°54.864 254.6 11.6 252 11.3
2006-12-19 14:55:55 51°16.283 2°54.586 257.7 9.7 255 11.6
2006-12-19 14:56:55 51°16.247 2°54.399 253.9 5.9 253 11.6
2006-12-19 14:57:55 51°16.226 2°54.286 257.9 1.4 254 11.6
2006-12-19 14:58:57 51°16.228 2°54.288 256.1 0.2 354 4.8
2006-12-19 14:59:54 51°16.226 2°54.288 250.1 0.1 244 11.7
2006-12-19 15:00:55 51°16.224 2°54.285 245.8 0.2 214 11.6
2006-12-19 15:01:55 51°16.221 2°54.281 240.2 0.3 202 11.6
2006-12-19 15:02:55 51°16.216 2°54.276 234.6 0.4 208 11.5
2006-12-19 15:03:55 51°16.211 2°54.27 231.6 0.5 196 11.6
2006-12-19 15:04:55 51°16.205 2°54.262 234.2 0.5 215 11.5
2006-12-19 15:05:55 51°16.197 2°54.247 240.9 2.1 236 11.5
2006-12-19 15:06:55 51°16.207 2°54.082 301.1 9.7 303 11.4
2006-12-19 15:07:55 51°16.359 2°53.935 336 11.5 329 11.5
2006-12-19 15:08:55 51°16.51 2°53.717 318.9 12.7 314 11.6
2006-12-19 15:09:55 51°16.664 2°53.467 320.2 13.3 315 11.4
2006-12-19 15:10:55 51°16.82 2°53.215 317.6 13.4 311 10.9
2006-12-19 15:11:55 51°16.968 2°52.959 318.7 13.3 314 8.6
2006-12-19 15:12:55 51°17.13 2°52.708 321.1 13.5 317 9.7
2006-12-19 15:13:55 51°17.298 2°52.475 324.2 13.4 318 9.9
2006-12-19 15:14:55 51°17.469 2°52.244 326.5 13.4 322 10.4
2006-12-19 15:15:55 51°17.645 2°52.021 327.3 13.4 322 10.4
2006-12-19 15:16:55 51°17.82 2°51.802 327.3 13.4 322 10.1
2006-12-19 15:17:54 51°17.993 2°51.585 326.9 13.5 322 10.6
2006-12-19 15:18:55 51°18.174 2°51.372 329.1 12.1 323 11.9
2006-12-19 15:19:55 51°18.306 2°51.218 329.3 7.9 324 13
2006-12-19 15:20:55 51°18.394 2°51.114 331.3 5.9 325 13.5
2006-12-19 15:21:55 51°18.464 2°51.043 338 4.1 330 13.8
2006-12-19 15:22:55 51°18.504 2°51.009 337.8 0.9 314 14
2006-12-19 15:23:55 51°18.504 2°51 325.9 0.3 272 13.9
2006-12-19 15:24:55 51°18.503 2°50.99 314.9 0.5 259 13.9
2006-12-19 15:25:55 51°18.504 2°50.979 308.3 0.5 262 13.9
2006-12-19 15:26:55 51°18.504 2°50.968 304.8 0.5 269 13.9
2006-12-19 15:27:55 51°18.506 2°50.936 282.8 3.2 273 13.9
2006-12-19 15:28:55 51°18.425 2°50.864 173.4 8.9 166 13.8
2006-12-19 15:29:55 51°18.264 2°51.049 143.1 13.2 142 12.8
2006-12-19 15:30:55 51°18.091 2°51.268 143.4 13.4 143 11.6
2006-12-19 15:31:55 51°17.915 2°51.479 146.1 13.5 142 10
2006-12-19 15:32:55 51°17.743 2°51.696 142.5 13.1 142 9.7
2006-12-19 15:33:55 51°17.558 2°51.892 150.9 13.4 149 9.9
2006-12-19 15:34:55 51°17.362 2°52.066 154.5 13.7 152 10.2
2006-12-19 15:35:55 51°17.163 2°52.232 156.6 13.5 154 10
2006-12-19 15:36:55 51°16.964 2°52.394 156.6 13.1 155 9.3
2006-12-19 15:37:55 51°16.766 2°52.56 153.8 13.6 151 9.5
2006-12-19 15:38:55 51°16.566 2°52.726 154.4 13.7 152 11.1
2006-12-19 15:39:55 51°16.364 2°52.89 153.9 13.6 153 11.6
2006-12-19 15:40:55 51°16.161 2°53.05 154.9 13.7 154 11.5
2006-12-19 15:41:55 51°15.964 2°53.218 152.4 13.4 151 11.2
2006-12-19 15:42:55 51°15.766 2°53.383 153 13.5 154 10.7
2006-12-19 15:43:55 51°15.566 2°53.547 153.7 13.2 152 10
2006-12-19 15:44:55 51°15.37 2°53.721 150.4 13.6 150 9.4
2006-12-19 15:45:55 51°15.182 2°53.911 146.5 13.3 146 8.8
2006-12-19 15:46:55 51°15.001 2°54.117 145.1 13.3 143 8.5
2006-12-19 15:47:55 51°14.819 2°54.328 142.4 13.5 140 8.7
2006-12-19 15:48:55 51°14.651 2°54.56 137.5 13.3 138 9
2006-12-19 15:49:55 51°14.49 2°54.803 135.6 13.1 135 9.5
2006-12-19 15:50:55 51°14.348 2°55.069 128.9 12.6 124 9.4
2006-12-19 15:51:55 51°14.23 2°55.31 137.7 10.4 137 9.9
2006-12-19 15:52:55 51°14.1 2°55.432 160 8.4 157 9.9
2006-12-19 15:53:55 51°13.982 2°55.512 160.1 7 157 10
2006-12-19 15:54:55 51°13.88 2°55.585 158.9 6.4 154 9.1
2006-12-19 15:55:55 51°13.79 2°55.665 151.2 6.1 147 10.3
2006-12-19 15:56:55 51°13.715 2°55.771 139.6 5.8 135 10.6
2006-12-19 15:57:55 51°13.66 2°55.881 127.3 4.9 122 9.7
2006-12-19 15:58:55 51°13.623 2°55.987 119.3 4.1 115 9.9
2006-12-19 15:59:55 51°13.608 2°56.063 111 1.8 102 7.7
2006-12-19 16:00:55 51°13.604 2°56.08 127.6 0.8 128 6.8
2006-12-19 16:01:58 51°13.598 2°56.091 125.9 0.4 139 6.6